Tiempo atmosférico en la estación meteorológica de Najera, La Rioja (500 m.)



Fecha
DESCASC
Temp. máxima en grados centígrados (hora)
DESCASC
Temp. mínima en grados centígrados (hora)
DESCASC
Temp. media en grados centígrados
DESCASC
Racha de viento máxima en m/sg (hora)
DESCASC
Velocidad máxima media en intervalos de 10 minutos(hora)
DESCASC
Precipitaciones diarias en mm
DESCASC
Precipitaciones de 00:00 a 06:00 en mm
DESCASC
Precipitaciones de 06:00 a 12:00 en mm
DESCASC
Precipitaciones de 12:00 a 18:00 en mm
DESCASC
Precipitaciones de 18:00 a 24:00 en mm
DESCASC
07-08-2020 36.4 (15:20) 18.8 (07:50) 27.6 13.33 (16:10) 5.83 (14:40) 15.8 0 0 13.4 2.4
06-08-2020 35.7 (18:20) 13.6 (07:20) 24.7 10.28 (13:10) 6.11 (15:10) 0 0 0 0 0
05-08-2020 35 (18:50) 11.3 (07:00) 23.2 7.5 (17:20) 2.5 (22:50) 0 0 0 0 0
04-08-2020 27.8 (18:20) 12.8 (04:20) 20.3 6.11 (15:30) 2.78 (16:30) 0 0 0 0 0
03-08-2020 25.6 (16:30) 12.7 (07:20) 19.2 7.5 (19:40) 3.33 (17:30) 0 0 0 0 0
02-08-2020 23.1 (16:00) 17.3 (00:00) 20.2 5.83 (16:40) 2.5 (14:20) 0 0 0 0 0
01-08-2020 26.8 (17:20) 19.6 (00:00) 23.2 9.17 (00:30) 5 (00:40) 0 0 0 0 0
31-07-2020 36.7 (18:40) 16.7 (07:20) 26.7 7.5 (23:10) 3.61 (23:40) 0 0 0 0 0
30-07-2020 35 (14:50) 17.4 (00:00) 26.2 16.94 (15:20) 7.5 (15:20) 3.6 0 0 3.6 0
29-07-2020 33.2 (19:10) 18 (00:00) 25.6 6.39 (21:00) 3.61 (20:20) 0 0 0 0 0
28-07-2020 26.7 (17:10) 16.9 (00:00) 21.8 8.06 (19:40) 3.33 (03:00) 0 0 0 0 0
27-07-2020 37.1 (18:00) 15.7 (00:00) 26.4 10.83 (19:40) 4.72 (21:40) 3.8 0 0 0 3.8
26-07-2020 33.7 (19:00) 14.9 (00:00) 24.3 5 (17:00) 2.5 (00:20) 0 0 0 0 0
25-07-2020 34.3 (18:10) 12.4 (00:00) 23.3 8.33 (21:10) 4.17 (22:50) 0 0 0 0 0
24-07-2020 28.9 (16:40) 14.7 (00:00) 21.8 7.5 (18:00) 4.17 (01:20) 0 0 0 0 0
23-07-2020 31.8 (17:50) 19.6 (00:00) 25.7 8.06 (23:30) 4.44 (23:30) 0 0 0 0 0
22-07-2020 34 (17:30) 16.6 (00:00) 25.3 8.33 (15:10) 4.17 (12:20) 0 0 0 0 0
21-07-2020 32 (15:10) 15.2 (00:00) 23.6 8.06 (17:30) 3.61 (15:10) 1.8 0 0 0.8 1
20-07-2020 34.3 (18:00) 16.6 (00:00) 25.4 8.06 (19:20) 3.89 (19:00) 0 0 0 0 0
19-07-2020 35.7 (18:00) 14.2 (00:00) 25 7.5 (17:30) 3.89 (17:20) 0 0 0 0 0
18-07-2020 33.5 (19:20) 12.6 (00:00) 23.1 3.89 (08:00) 2.22 (04:50) 0 0 0 0 0
17-07-2020 26.2 (16:40) 14.4 (00:00) 20.3 6.67 (18:20) 3.33 (18:20) 0 0 0 0 0
16-07-2020 27.7 (16:20) 12.1 (00:00) 19.9 7.78 (23:20) 4.17 (19:30) 0 0 0 0 0
15-07-2020 24.8 (18:00) 9.8 (00:00) 17.3 7.5 (14:40) 3.33 (19:00) 0 0 0 0 0
14-07-2020 26.6 (17:10) 11.5 (00:00) 19.1 7.22 (15:10) 3.33 (21:40) 0 0 0 0 0
13-07-2020 27.9 (16:00) 15.6 (00:00) 21.8 8.33 (19:10) 3.89 (16:20) 0 0 0 0 0

Gráficas

Temp. máximas Temp. mínimas Temp. medias Precipitaciones Rachas de viento máximas Velocidades máximas media en intervalos de 10 minutos

Datos horarios

Fecha y hora oficial Temperatura (ºC) Velocidad del viento (km/h) Dirección del viento Racha (km/h) Dirección de racha Precipitación (mm) Presión (hPa) Tendencia (hPa) Humedad (%)
2020-08-11 23:00:00 20.6 9 Sur 26 Sudoeste 0.6 -- -- 66
2020-08-11 22:00:00 21.3 5 Sudoeste 9 Sur 0 -- -- 73
2020-08-11 21:00:00 22.5 4 Norte 15 Norte 0 -- -- 65
2020-08-11 20:00:00 23.1 5 Nordeste 14 Este 0 -- -- 64
2020-08-11 19:00:00 22.3 6 Nordeste 13 Este 0 -- -- 67
2020-08-11 18:00:00 22.3 5 Sudoeste 14 Norte 0 -- -- 66
2020-08-11 17:00:00 22.3 4 Noroeste 30 Norte 0 -- -- 69
2020-08-11 16:00:00 23.8 15 Oeste 43 Noroeste 0 -- -- 65
2020-08-11 15:00:00 27.9 13 Este 32 Este 0.2 -- -- 58
2020-08-11 14:00:00 28.8 20 Nordeste 44 Nordeste 0 -- -- 53
2020-08-11 13:00:00 29.6 22 Nordeste 43 Nordeste 0 -- -- 47
2020-08-11 12:00:00 28.3 20 Este 41 Nordeste 0 -- -- 49
2020-08-11 11:00:00 26.2 10 Nordeste 25 Nordeste 0 -- -- 65
2020-08-11 10:00:00 23.4 8 Este 24 Nordeste 0 -- -- 74
2020-08-11 09:00:00 20.3 3 Sudeste 14 Nordeste 0 -- -- 80
2020-08-11 08:00:00 20 6 Nordeste 14 Nordeste 0 -- -- 81
2020-08-11 07:00:00 18.3 4 Este 9 Sur 0 -- -- 83
2020-08-11 06:00:00 17.6 5 Sur 10 Sur 0 -- -- 84
2020-08-11 05:00:00 17.3 2 Este 10 Sur 0 -- -- 83
2020-08-11 04:00:00 17.2 4 Sur 9 Sur 0 -- -- 83
2020-08-11 03:00:00 18 3 Sur 12 Sudoeste 0 -- -- 80
2020-08-11 02:00:00 18.9 4 Sudoeste 9 Sudoeste 0 -- -- 78
2020-08-11 01:00:00 20 2 Sur 8 Sudeste 0 -- -- 75
2020-08-11 00:00:00 21.6 3 Sur 6 Sudeste 0 -- -- 69
2020-08-10 23:00:00 23 0 Calma 9 Sudoeste 0 -- -- 64
2020-08-10 22:00:00 24.4 2 Sudoeste 11 Sudoeste 0 -- -- 57
2020-08-10 21:00:00 26.5 4 Sur 19 Oeste 0 -- -- 53
2020-08-10 20:00:00 29.4 10 Oeste 25 Noroeste 0 -- -- 45
2020-08-10 19:00:00 31.5 5 Este 21 Este 0 -- -- 34
2020-08-10 18:00:00 32 10 Sur 34 Sur 0 -- -- 33
2020-08-10 17:00:00 31.8 13 Sur 45 Sur 0 -- -- 34
2020-08-10 16:00:00 32.6 8 Sudoeste 30 Nordeste 0 -- -- 44
2020-08-10 15:00:00 32.1 15 Nordeste 31 Nordeste 0 -- -- 44
2020-08-10 14:00:00 29.9 15 Este 27 Este 0 -- -- 50
2020-08-10 13:00:00 28.1 9 Nordeste 19 Este 0 -- -- 52
2020-08-10 12:00:00 26.3 8 Nordeste 18 Nordeste 0 -- -- 56
2020-08-10 11:00:00 24.2 5 Nordeste 10 Norte 0 -- -- 65
2020-08-10 10:00:00 20.6 3 Sur 7 Sudoeste 0 -- -- 81
2020-08-10 09:00:00 19.1 3 Sur 13 Sudoeste 0 -- -- 85
2020-08-10 08:00:00 18 3 Sur 7 Sur 0 -- -- 87
2020-08-10 07:00:00 17.7 4 Sudeste 10 Sur 0 -- -- 86
2020-08-10 06:00:00 18.2 5 Sur 9 Sur 0 -- -- 86
2020-08-10 05:00:00 18.6 4 Sur 8 Sur 0 -- -- 86
2020-08-10 04:00:00 19.2 5 Sur 11 Sur 0 -- -- 85
2020-08-10 03:00:00 20 5 Sur 11 Sudeste 0 -- -- 83
2020-08-10 02:00:00 21.2 4 Sur 9 Sur 0 -- -- 79
2020-08-10 01:00:00 22.5 4 Sur 10 Nordeste 0 -- -- 73
2020-08-10 00:00:00 23.1 4 Sudoeste 13 Sudoeste 0 -- -- 71
2020-08-09 23:00:00 24.6 4 Sur 8 Sur 0 -- -- 70
2020-08-09 22:00:00 26 4 Sur 14 Sur 0 -- -- 61
2020-08-09 21:00:00 27.1 7 Sur 14 Sur 0 -- -- 63
2020-08-09 20:00:00 28.2 5 Sur 17 Sudoeste 0 -- -- 60
2020-08-09 19:00:00 25.8 6 Oeste 36 Sur 0.2 -- -- 63
2020-08-09 18:00:00 34.4 8 Este 28 Este 0 -- -- 41
2020-08-09 17:00:00 34.3 14 Este 34 Este 0 -- -- 42
2020-08-09 16:00:00 33.7 13 Nordeste 28 Nordeste 0 -- -- 46
2020-08-09 15:00:00 32.1 14 Nordeste 28 Nordeste 0 -- -- 46
2020-08-09 14:00:00 31.3 18 Nordeste 29 Nordeste 0 -- -- 48
2020-08-09 13:00:00 29.4 15 Nordeste 27 Nordeste 0 -- -- 55
2020-08-09 12:00:00 27.8 15 Nordeste 24 Nordeste 0 -- -- 56
2020-08-09 11:00:00 24.8 5 Norte 15 Norte 0 -- -- 64
2020-08-09 10:00:00 22.1 5 Nordeste 7 Nordeste 0 -- -- 73
2020-08-09 09:00:00 19.1 0 Calma 5 Sur 0 -- -- 84
2020-08-09 08:00:00 17.1 2 Sur 6 Sur 0 -- -- 88
2020-08-09 07:00:00 17.5 3 Sudeste 5 Sur 0 -- -- 88
2020-08-09 06:00:00 18.1 3 Sudoeste 4 Sur 0 -- -- 87
2020-08-09 05:00:00 18.4 2 Sur 6 Sudeste 0 -- -- 85
2020-08-09 04:00:00 19.2 0 Calma 5 Sur 0 -- -- 83
2020-08-09 03:00:00 20 0 Calma 10 Sur 0 -- -- 79
2020-08-09 02:00:00 20.7 2 Sudeste 6 Sudeste 0 -- -- 78
2020-08-09 01:00:00 22 2 Sudoeste 9 Sudoeste 0 -- -- 74
2020-08-09 00:00:00 23.6 0 Calma 12 Sudoeste 0 -- -- 67
2020-08-08 23:00:00 24.2 7 Sur 25 Noroeste 0 -- -- 64
2020-08-08 22:00:00 25.2 8 Noroeste 32 Oeste 0 -- -- 58
2020-08-08 21:00:00 26.8 6 Oeste 16 Noroeste 0 -- -- 52
2020-08-08 20:00:00 28.7 4 Sudoeste 19 Oeste 0 -- -- 49
2020-08-08 19:00:00 30 5 Oeste 21 Sudoeste 0 -- -- 55
2020-08-08 18:00:00 33.1 4 Sudoeste 10 Oeste 0 -- -- 45
2020-08-08 17:00:00 32.6 3 Noroeste 9 Nordeste 0 -- -- 47
2020-08-08 16:00:00 32 4 Noroeste 11 Nordeste 0 -- -- 47
2020-08-08 15:00:00 30.6 4 Noroeste 12 Norte 0 -- -- 51
2020-08-08 14:00:00 30.1 4 Sur 10 Nordeste 0 -- -- 53
2020-08-08 13:00:00 28.3 3 Este 9 Sur 0 -- -- 54
2020-08-08 12:00:00 26 3 Sudeste 10 Noroeste 0 -- -- 55
2020-08-08 11:00:00 24.2 4 Oeste 9 Oeste 0 -- -- 60
2020-08-08 10:00:00 22.5 0 Calma 9 Sur 0 -- -- 68
2020-08-08 09:00:00 20.2 5 Sur 9 Sur 0 -- -- 85
2020-08-08 08:00:00 18.3 4 Sur 9 Sudoeste 0 -- -- 90
2020-08-08 07:00:00 18.1 3 Sur 12 Sur 0 -- -- 90
2020-08-08 06:00:00 18.4 6 Sur 10 Sur 0 -- -- 91
2020-08-08 05:00:00 18.8 5 Sur 9 Sudeste 0 -- -- 92
2020-08-08 04:00:00 19.3 4 Sur 6 Sudeste 0 -- -- 90
2020-08-08 03:00:00 19.9 4 Sur 8 Sur 0.2 -- -- 90
2020-08-08 02:00:00 20.7 4 Sur 9 Sur 0 -- -- 88
2020-08-08 01:00:00 21.3 4 Sur 6 Sur 0 -- -- 86
2020-08-08 00:00:00 22.4 3 Noroeste 9 Noroeste 0 -- -- 79
2020-08-07 23:00:00 22.8 5 Oeste 21 Noroeste 0 -- -- 74
2020-08-07 22:00:00 23.5 15 Nordeste 33 Sudoeste 0 -- -- 71
2020-08-07 21:00:00 23.5 9 Noroeste 21 Nordeste 0 -- -- 82
2020-08-07 20:00:00 23.8 7 Noroeste 28 Sudoeste 0.6 -- -- 82
2020-08-07 19:00:00 23.2 8 Sur 27 Norte 1.8 -- -- 84
2020-08-07 18:00:00 25.4 8 Noroeste 26 Noroeste 2.6 -- -- 65
2020-08-07 17:00:00 25.2 6 Oeste 48 Sudoeste 10.8 -- -- 66
2020-08-07 16:00:00 33.9 11 Noroeste 40 Nordeste 0 -- -- 40
2020-08-07 15:00:00 35.4 20 Nordeste 41 Este 0 -- -- 36
2020-08-07 14:00:00 33.9 18 Nordeste 32 Nordeste 0 -- -- 41
2020-08-07 13:00:00 31.8 19 Nordeste 32 Nordeste 0 -- -- 45
2020-08-07 12:00:00 29.8 17 Este 32 Este 0 -- -- 49
2020-08-07 11:00:00 27.5 15 Este 26 Este 0 -- -- 51
2020-08-07 10:00:00 25.5 12 Este 20 Nordeste 0 -- -- 59
2020-08-07 09:00:00 22.1 6 Nordeste 17 Este 0 -- -- 71
2020-08-07 08:00:00 18.9 3 Sur 9 Sudeste 0 -- -- 74
2020-08-07 07:00:00 19.7 3 Sudeste 17 Nordeste 0 -- -- 70
2020-08-07 06:00:00 21.4 2 Sudoeste 13 Este 0 -- -- 64
2020-08-07 05:00:00 24.1 4 Nordeste 22 Este 0 -- -- 57
2020-08-07 04:00:00 24.4 3 Norte 19 Este 0 -- -- 54
2020-08-07 03:00:00 23.9 5 Norte 11 Norte 0 -- -- 54
2020-08-07 02:00:00 23.4 2 Noroeste 9 Sur 0 -- -- 69
2020-08-07 01:00:00 24.4 4 Sudoeste 9 Sudoeste 0 -- -- 68
2020-08-07 00:00:00 26.2 3 Sudeste 10 Sur 0 -- -- 62
2020-08-06 23:00:00 28.4 2 Sudeste 10 Nordeste 0 -- -- 53
2020-08-06 22:00:00 31.1 9 Nordeste 16 Nordeste 0 -- -- 40
2020-08-06 21:00:00 32.7 3 Este 23 Este 0 -- -- 37
2020-08-06 20:00:00 34.6 14 Este 27 Este 0 -- -- 33
2020-08-06 19:00:00 35.3 13 Este 29 Este 0 -- -- 35
2020-08-06 18:00:00 35.5 10 Este 28 Nordeste 0 -- -- 38
2020-08-06 17:00:00 34.6 16 Este 32 Nordeste 0 -- -- 39
2020-08-06 16:00:00 33.9 18 Este 34 Nordeste 0 -- -- 42
2020-08-06 15:00:00 32.4 16 Nordeste 36 Nordeste 0 -- -- 45
2020-08-06 14:00:00 31.1 20 Este 37 Este 0 -- -- 47
2020-08-06 13:00:00 29.3 17 Este 30 Este 0 -- -- 46
2020-08-06 12:00:00 26.6 16 Nordeste 28 Este 0 -- -- 45
2020-08-06 11:00:00 24.4 15 Este 22 Este 0 -- -- 49
2020-08-06 10:00:00 20.8 3 Noroeste 6 Noroeste 0 -- -- 54
2020-08-06 09:00:00 17.3 0 Calma 3 Sudoeste 0 -- -- 63
2020-08-06 08:00:00 14.1 2 Sudoeste 7 Sur 0 -- -- 73
2020-08-06 07:00:00 13.9 2 Sur 5 Sudoeste 0 -- -- 74
2020-08-06 06:00:00 14.6 4 Sur 8 Sudoeste 0 -- -- 70
2020-08-06 05:00:00 15.6 2 Sur 6 Sur 0 -- -- 65
2020-08-06 04:00:00 16.5 4 Sur 10 Sudeste 0 -- -- 62
2020-08-06 03:00:00 17.4 5 Sur 9 Sur 0 -- -- 60
2020-08-06 02:00:00 18.2 5 Sur 9 Sur 0 -- -- 58
2020-08-06 01:00:00 19.3 5 Sur 13 Sur 0 -- -- 54
2020-08-06 00:00:00 21.3 9 Sur 12 Sur 0 -- -- 48
2020-08-05 23:00:00 23.2 8 Sur 14 Sur 0 -- -- 44
2020-08-05 22:00:00 26.7 2 Sur 5 Sur 0 -- -- 38
2020-08-05 21:00:00 31.1 3 Norte 17 Norte 0 -- -- 30
2020-08-05 20:00:00 34.5 3 Nordeste 13 Nordeste 0 -- -- 18
2020-08-05 19:00:00 34.8 5 Nordeste 13 Este 0 -- -- 15
2020-08-05 18:00:00 34.7 6 Nordeste 27 Sudeste 0 -- -- 17
2020-08-05 17:00:00 33.9 5 Norte 14 Sudeste 0 -- -- 20
2020-08-05 16:00:00 32.3 4 Oeste 13 Nordeste 0 -- -- 21
2020-08-05 15:00:00 30.9 5 Norte 14 Nordeste 0 -- -- 22
2020-08-05 14:00:00 29.1 5 Norte 13 Este 0 -- -- 29
2020-08-05 13:00:00 26.7 3 Nordeste 12 Nordeste 0 -- -- 35
2020-08-05 12:00:00 24.6 4 Nordeste 12 Norte 0 -- -- 43
2020-08-05 11:00:00 22.1 3 Norte 8 Nordeste 0 -- -- 52
2020-08-05 10:00:00 19.3 4 Oeste 10 Oeste 0 -- -- 59
2020-08-05 09:00:00 15.9 5 Sur 10 Sur 0 -- -- 67
2020-08-05 08:00:00 12.3 3 Sur 12 Sur 0 -- -- 83
2020-08-05 07:00:00 11.3 5 Sur 9 Sur 0 -- -- 86
2020-08-05 06:00:00 11.8 5 Sur 9 Sur 0 -- -- 85
2020-08-05 05:00:00 12.7 6 Sur 10 Sur 0 -- -- 84
2020-08-05 04:00:00 13.4 5 Sur 9 Sur 0 -- -- 83
2020-08-05 03:00:00 14.2 5 Sur 10 Sur 0 -- -- 82
2020-08-05 02:00:00 15.1 7 Sur 12 Sur 0 -- -- 80
2020-08-05 01:00:00 16.7 5 Sur 16 Sur 0 -- -- 73
2020-08-05 00:00:00 17.5 7 Sudoeste 15 Sudoeste 0 -- -- 70
2020-08-04 23:00:00 19.1 4 Sur 13 Noroeste 0 -- -- 64
2020-08-04 22:00:00 21.2 4 Noroeste 12 Norte 0 -- -- 56
2020-08-04 21:00:00 23.9 4 Norte 13 Noroeste 0 -- -- 50
2020-08-04 20:00:00 26.1 4 Noroeste 19 Noroeste 0 -- -- 44
2020-08-04 19:00:00 27.1 7 Norte 18 Norte 0 -- -- 42
2020-08-04 18:00:00 27.2 8 Norte 21 Nordeste 0 -- -- 42
2020-08-04 17:00:00 26.9 7 Norte 19 Norte 0 -- -- 43
2020-08-04 16:00:00 26.5 6 Norte 22 Nordeste 0 -- -- 44
2020-08-04 15:00:00 25.2 8 Norte 18 Norte 0 -- -- 47
2020-08-04 14:00:00 24 7 Nordeste 16 Nordeste 0 -- -- 50
2020-08-04 13:00:00 23.1 8 Norte 17 Norte 0 -- -- 52
2020-08-04 12:00:00 22 5 Nordeste 15 Nordeste 0 -- -- 54
2020-08-04 11:00:00 19.3 3 Norte 14 Sudoeste 0 -- -- 65
2020-08-04 10:00:00 18.6 4 Sudoeste 9 Sudoeste 0 -- -- 68
2020-08-04 09:00:00 16.3 3 Sur 9 Sudoeste 0 -- -- 73
2020-08-04 08:00:00 14.9 4 Sudoeste 9 Sur 0 -- -- 75
2020-08-04 07:00:00 14.5 4 Sur 9 Sudeste 0 -- -- 76
2020-08-04 06:00:00 13.8 3 Sudeste 10 Sur 0 -- -- 78
2020-08-04 05:00:00 12.9 5 Sudoeste 12 Sudoeste 0 -- -- 79
2020-08-04 04:00:00 12.9 4 Sur 9 Sur 0 -- -- 80
2020-08-04 03:00:00 13.7 5 Sur 10 Sur 0 -- -- 79
2020-08-04 02:00:00 15.2 3 Sur 8 Sudoeste 0 -- -- 73
2020-08-04 01:00:00 16.8 5 Sur 11 Sudoeste 0 -- -- 67
2020-08-04 00:00:00 18 4 Sudoeste 19 Oeste 0 -- -- 63
2020-08-03 23:00:00 18.6 5 Oeste 12 Noroeste 0 -- -- 62
2020-08-03 22:00:00 19.9 4 Noroeste 12 Norte 0 -- -- 53
2020-08-03 21:00:00 21.8 6 Norte 18 Norte 0 -- -- 50
2020-08-03 20:00:00 23.3 8 Norte 27 Norte 0 -- -- 49
2020-08-03 19:00:00 24.7 11 Nordeste 20 Norte 0 -- -- 46
2020-08-03 18:00:00 24.9 9 Norte 24 Norte 0 -- -- 46
2020-08-03 17:00:00 25.5 8 Norte 25 Norte 0 -- -- 46
2020-08-03 16:00:00 24.8 7 Norte 19 Nordeste 0 -- -- 47
2020-08-03 15:00:00 24.4 6 Norte 21 Norte 0 -- -- 49
2020-08-03 14:00:00 23.4 7 Noroeste 20 Norte 0 -- -- 48
2020-08-03 13:00:00 22.2 7 Noroeste 19 Noroeste 0 -- -- 51
2020-08-03 12:00:00 20.3 5 Oeste 22 Oeste 0 -- -- 56
2020-08-03 11:00:00 19.2 6 Oeste 18 Noroeste 0 -- -- 60
2020-08-03 10:00:00 18.1 4 Noroeste 18 Oeste 0 -- -- 68
2020-08-03 09:00:00 16 4 Sudoeste 8 Oeste 0 -- -- 81
2020-08-03 08:00:00 13.6 5 Sur 8 Sudeste 0 -- -- 89
2020-08-03 07:00:00 12.9 4 Sur 9 Sur 0 -- -- 88
2020-08-03 06:00:00 13.7 4 Sur 8 Sur 0 -- -- 86
2020-08-03 05:00:00 15 3 Sur 8 Oeste 0 -- -- 82
2020-08-03 04:00:00 16.1 3 Oeste 10 Sudoeste 0 -- -- 79
2020-08-03 03:00:00 16 4 Sudoeste 8 Sudoeste 0 -- -- 79
2020-08-03 02:00:00 16.5 5 Oeste 12 Oeste 0 -- -- 77
2020-08-03 01:00:00 17.2 6 Oeste 12 Oeste 0 -- -- 74
2020-08-03 00:00:00 17.6 5 Sudoeste 13 Oeste 0 -- -- 72
2020-08-02 23:00:00 18 6 Oeste 17 Oeste 0 -- -- 69
2020-08-02 22:00:00 18.7 7 Norte 15 Norte 0 -- -- 71
2020-08-02 21:00:00 19.7 7 Norte 16 Norte 0 -- -- 67
2020-08-02 20:00:00 20.3 5 Norte 17 Norte 0 -- -- 63
2020-08-02 19:00:00 20.5 3 Norte 19 Noroeste 0 -- -- 64
2020-08-02 18:00:00 21.1 6 Norte 19 Norte 0 -- -- 64
2020-08-02 17:00:00 22 5 Norte 21 Noroeste 0 -- -- 60
2020-08-02 16:00:00 23.1 6 Norte 17 Noroeste 0 -- -- 58
2020-08-02 15:00:00 22.3 5 Norte 20 Noroeste 0 -- -- 60
2020-08-02 14:00:00 21.4 8 Noroeste 20 Oeste 0 -- -- 64
2020-08-02 13:00:00 20.8 3 Noroeste 17 Noroeste 0 -- -- 68
2020-08-02 12:00:00 19.9 6 Noroeste 18 Noroeste 0 -- -- 71
2020-08-02 11:00:00 19.4 8 Noroeste 15 Oeste 0 -- -- 72
2020-08-02 10:00:00 18.6 4 Noroeste 17 Noroeste 0 -- -- 77
2020-08-02 09:00:00 18 5 Noroeste 14 Oeste 0 -- -- 82
2020-08-02 08:00:00 17.8 4 Sudoeste 15 Oeste 0 -- -- 83
2020-08-02 07:00:00 17.6 4 Sudoeste 12 Sudoeste 0 -- -- 83
2020-08-02 06:00:00 17.3 4 Sur 10 Sudoeste 0 -- -- 88
2020-08-02 05:00:00 17.8 6 Sur 10 Sudeste 0 -- -- 87
2020-08-02 04:00:00 18.3 2 Noroeste 12 Oeste 0 -- -- 79
2020-08-02 03:00:00 18.6 3 Noroeste 13 Sudoeste 0 -- -- 79
2020-08-02 02:00:00 18.7 4 Noroeste 15 Oeste 0 -- -- 82
2020-08-02 01:00:00 19 5 Oeste 15 Oeste 0 -- -- 82
2020-08-02 00:00:00 19.6 7 Oeste 15 Noroeste 0 -- -- 80
2020-08-01 23:00:00 20.5 6 Oeste 18 Oeste 0 -- -- 74
2020-08-01 22:00:00 21 8 Noroeste 18 Noroeste 0 -- -- 71
2020-08-01 21:00:00 22 8 Noroeste 17 Noroeste 0 -- -- 67
2020-08-01 20:00:00 23 8 Noroeste 31 Oeste 0 -- -- 66
2020-08-01 19:00:00 24.6 8 Norte 28 Norte 0 -- -- 60
2020-08-01 18:00:00 26.6 6 Norte 31 Oeste 0 -- -- 56
2020-08-01 17:00:00 26.6 8 Noroeste 25 Oeste 0 -- -- 54
2020-08-01 16:00:00 25.5 9 Noroeste 29 Oeste 0 -- -- 56
2020-08-01 15:00:00 24.5 7 Noroeste 21 Noroeste 0 -- -- 59
2020-08-01 14:00:00 23.4 8 Oeste 26 Noroeste 0 -- -- 62
2020-08-01 13:00:00 22.2 7 Noroeste 21 Oeste 0 -- -- 67
2020-08-01 12:00:00 20.8 9 Noroeste 22 Oeste 0 -- -- 74
2020-08-01 11:00:00 20.4 7 Noroeste 15 Oeste 0 -- -- 77
2020-08-01 10:00:00 20.1 6 Noroeste 17 Oeste 0 -- -- 79
2020-08-01 09:00:00 19.9 6 Noroeste 15 Oeste 0 -- -- 81
2020-08-01 08:00:00 19.6 9 Oeste 18 Oeste 0 -- -- 84
2020-08-01 07:00:00 19.7 8 Oeste 18 Oeste 0 -- -- 84
2020-08-01 06:00:00 19.9 8 Oeste 22 Oeste 0 -- -- 84
2020-08-01 05:00:00 20.1 12 Oeste 23 Oeste 0 -- -- 84
2020-08-01 04:00:00 20.5 9 Oeste 23 Oeste 0 -- -- 83
2020-08-01 03:00:00 20.7 13 Oeste 27 Oeste 0 -- -- 82
2020-08-01 02:00:00 20.6 13 Oeste 32 Noroeste 0 -- -- 83
2020-08-01 01:00:00 20.8 13 Oeste 33 Oeste 0 -- -- 83
2020-08-01 00:00:00 22 12 Sudoeste 27 Oeste 0 -- -- 80
2020-07-31 23:00:00 24.7 9 Sudoeste 23 Oeste 0 -- -- 70
2020-07-31 22:00:00 29.5 4 Sudoeste 14 Oeste 0 -- -- 51
2020-07-31 21:00:00 33.6 3 Sudeste 7 Sudeste 0 -- -- 42
2020-07-31 20:00:00 35.8 3 Este 14 Este 0 -- -- 34
2020-07-31 19:00:00 36.5 6 Nordeste 12 Nordeste 0 -- -- 33
2020-07-31 18:00:00 36.5 5 Norte 12 Norte 0 -- -- 33
2020-07-31 17:00:00 35.7 6 Norte 13 Nordeste 0 -- -- 34
2020-07-31 16:00:00 34.7 6 Este 15 Norte 0 -- -- 36
2020-07-31 15:00:00 33.5 5 Norte 14 Norte 0 -- -- 39
2020-07-31 14:00:00 31.8 4 Nordeste 12 Norte 0 -- -- 46
2020-07-31 13:00:00 29.6 4 Norte 12 Norte 0 -- -- 50
2020-07-31 12:00:00 27.6 3 Este 12 Este 0 -- -- 54
2020-07-31 11:00:00 25.5 3 Nordeste 9 Nordeste 0 -- -- 62
2020-07-31 10:00:00 22.5 2 Oeste 5 Sudoeste 0 -- -- 71
2020-07-31 09:00:00 20 2 Sudeste 6 Sudeste 0 -- -- 80
2020-07-31 08:00:00 17.2 5 Sur 8 Sudeste 0 -- -- 89
2020-07-31 07:00:00 16.8 2 Sur 9 Sur 0 -- -- 90
2020-07-31 06:00:00 17.2 3 Sudeste 8 Sudeste 0 -- -- 89
2020-07-31 05:00:00 17.7 3 Sur 8 Sudeste 0 -- -- 88
2020-07-31 04:00:00 18.5 4 Sur 8 Sudoeste 0 -- -- 87
2020-07-31 03:00:00 19.6 0 Calma 6 Sudeste 0 -- -- 84
2020-07-31 02:00:00 20.9 0 Calma 7 Sur 0 -- -- 80
2020-07-31 01:00:00 21.7 2 Este 15 Sur 0 -- -- 76
2020-07-31 00:00:00 22.3 5 Sur 14 Noroeste 0 -- -- 74
2020-07-30 23:00:00 23.4 4 Noroeste 13 Norte 0 -- -- 66
2020-07-30 22:00:00 24.7 3 Nordeste 33 Oeste 0 -- -- 60
2020-07-30 21:00:00 24.3 9 Sudoeste 49 Sudeste 0 -- -- 59
2020-07-30 20:00:00 24.6 8 Nordeste 30 Nordeste 0 -- -- 58
2020-07-30 19:00:00 24.2 8 Sur 45 Este 0 -- -- 61
2020-07-30 18:00:00 23 8 Nordeste 18 Sudeste 1.2 -- -- 80
2020-07-30 17:00:00 24 5 Oeste 25 Sur 0 -- -- 71
2020-07-30 16:00:00 23.3 8 Nordeste 61 Sudoeste 2.4 -- -- 75
2020-07-30 15:00:00 34.1 18 Nordeste 51 Este 0 -- -- 38
2020-07-30 14:00:00 33.5 22 Nordeste 44 Este 0 -- -- 40
2020-07-30 13:00:00 31.4 24 Este 41 Este 0 -- -- 43
2020-07-30 12:00:00 30 22 Este 40 Este 0 -- -- 46
2020-07-30 11:00:00 27.9 13 Este 32 Este 0 -- -- 52
2020-07-30 10:00:00 25.1 15 Nordeste 31 Nordeste 0 -- -- 59
2020-07-30 09:00:00 22.2 13 Este 21 Nordeste 0 -- -- 68
2020-07-30 08:00:00 18 2 Sur 8 Sudeste 0 -- -- 80
2020-07-30 07:00:00 17.5 4 Sur 8 Sur 0 -- -- 82
2020-07-30 06:00:00 18.1 3 Sur 8 Sur 0 -- -- 81
2020-07-30 05:00:00 18.8 4 Sur 9 Sudoeste 0 -- -- 79
2020-07-30 04:00:00 19.7 2 Sur 7 Sudeste 0 -- -- 77
2020-07-30 03:00:00 21 3 Sudeste 8 Sudeste 0 -- -- 72
2020-07-30 02:00:00 22.2 3 Sur 8 Sudeste 0 -- -- 68
2020-07-30 01:00:00 23.7 3 Sur 10 Sudoeste 0 -- -- 62
2020-07-30 00:00:00 25.3 5 Sur 15 Sur 0 -- -- 56
2020-07-29 23:00:00 27.1 4 Sur 10 Sudeste 0 -- -- 54
2020-07-29 22:00:00 29.3 4 Este 18 Este 0 -- -- 48
2020-07-29 21:00:00 31.6 9 Este 23 Este 0 -- -- 42
2020-07-29 20:00:00 32.5 10 Este 21 Este 0 -- -- 44
2020-07-29 19:00:00 33.1 11 Nordeste 21 Norte 0 -- -- 43
2020-07-29 18:00:00 32.9 12 Este 22 Este 0 -- -- 43
2020-07-29 17:00:00 32.1 13 Este 23 Este 0 -- -- 46
2020-07-29 16:00:00 31 10 Nordeste 21 Nordeste 0 -- -- 48
2020-07-29 15:00:00 28.6 8 Norte 19 Nordeste 0 -- -- 55
2020-07-29 14:00:00 26.2 4 Nordeste 13 Este 0 -- -- 58
2020-07-29 13:00:00 24.2 4 Oeste 9 Oeste 0 -- -- 64
2020-07-29 12:00:00 21.9 6 Oeste 13 Noroeste 0 -- -- 70
2020-07-29 11:00:00 20.6 6 Oeste 14 Oeste 0 -- -- 74
2020-07-29 10:00:00 19.4 6 Oeste 13 Oeste 0 -- -- 79
2020-07-29 09:00:00 18.7 5 Sudoeste 9 Sudoeste 0 -- -- 84
2020-07-29 08:00:00 18.2 5 Sur 11 Sur 0 -- -- 86
2020-07-29 07:00:00 18.1 4 Sur 9 Sudoeste 0 -- -- 86
2020-07-29 06:00:00 18.3 4 Oeste 15 Oeste 0 -- -- 84
2020-07-29 05:00:00 18.5 5 Oeste 14 Noroeste 0 -- -- 83
2020-07-29 04:00:00 18.8 6 Oeste 14 Oeste 0 -- -- 83
2020-07-29 03:00:00 19.1 8 Oeste 17 Oeste 0 -- -- 82
2020-07-29 02:00:00 19.4 8 Oeste 15 Oeste 0 -- -- 82
2020-07-29 01:00:00 19.9 7 Oeste 15 Oeste 0 -- -- 81
2020-07-29 00:00:00 20.3 6 Oeste 14 Oeste 0 -- -- 80
2020-07-28 23:00:00 20.9 5 Oeste 15 Noroeste 0 -- -- 78
2020-07-28 22:00:00 21.7 7 Noroeste 18 Noroeste 0 -- -- 75
2020-07-28 21:00:00 22.7 4 Noroeste 20 Noroeste 0 -- -- 72
2020-07-28 20:00:00 23.7 9 Noroeste 29 Oeste 0 -- -- 69
2020-07-28 19:00:00 26.3 9 Oeste 26 Noroeste 0 -- -- 60
2020-07-28 18:00:00 26.4 8 Noroeste 21 Oeste 0 -- -- 59
2020-07-28 17:00:00 26.2 6 Oeste 18 Norte 0 -- -- 59
2020-07-28 16:00:00 25.7 6 Noroeste 19 Noroeste 0 -- -- 61
2020-07-28 15:00:00 25.5 5 Sur 19 Sudeste 0 -- -- 62
2020-07-28 14:00:00 24.1 6 Sur 17 Sur 0 -- -- 65
2020-07-28 13:00:00 22.5 8 Sur 20 Sur 0 -- -- 71
2020-07-28 12:00:00 21.3 6 Sudoeste 15 Sudoeste 0 -- -- 76
2020-07-28 11:00:00 20.5 7 Sudoeste 12 Sudoeste 0 -- -- 79
2020-07-28 10:00:00 19.9 5 Sudoeste 13 Sudoeste 0 -- -- 79
2020-07-28 09:00:00 19.1 6 Sudoeste 15 Sur 0 -- -- 80
2020-07-28 08:00:00 17.6 5 Sur 14 Sudoeste 0 -- -- 83
2020-07-28 07:00:00 17 8 Sudoeste 18 Sur 0 -- -- 86
2020-07-28 06:00:00 17.6 6 Sudoeste 18 Sur 0 -- -- 84
2020-07-28 05:00:00 18 10 Sudoeste 20 Sudoeste 0 -- -- 80
2020-07-28 04:00:00 18.6 8 Sudoeste 18 Oeste 0 -- -- 73
2020-07-28 03:00:00 19 12 Sudoeste 23 Sudoeste 0 -- -- 67
2020-07-28 02:00:00 19.1 9 Sur 17 Sur 0 -- -- 67
2020-07-28 01:00:00 19.9 8 Sur 18 Sudoeste 0 -- -- 62
2020-07-28 00:00:00 21.3 9 Sudoeste 26 Sudoeste 0 -- -- 58
2020-07-27 23:00:00 22.5 7 Sudoeste 29 Oeste 0 -- -- 72
2020-07-27 22:00:00 23.7 15 Oeste 37 Oeste 0 -- -- 70
2020-07-27 21:00:00 27.3 9 Sur 17 Sur 3.8 -- -- 68
2020-07-27 20:00:00 33.5 6 Sudeste 39 Sudeste 0 -- -- 36
2020-07-27 19:00:00 36.6 14 Este 28 Este 0 -- -- 34
2020-07-27 18:00:00 37.1 12 Este 28 Nordeste 0 -- -- 37
2020-07-27 17:00:00 36.7 14 Este 30 Nordeste 0 -- -- 39
2020-07-27 16:00:00 35.3 16 Este 30 Nordeste 0 -- -- 42
2020-07-27 15:00:00 33.9 14 Nordeste 28 Este 0 -- -- 46
2020-07-27 14:00:00 32.2 14 Este 27 Nordeste 0 -- -- 50
2020-07-27 13:00:00 30.3 15 Nordeste 29 Este 0 -- -- 54
2020-07-27 12:00:00 28.1 17 Este 25 Nordeste 0 -- -- 57
2020-07-27 09:00:00 19.2 4 Sudoeste 8 Sudoeste 0 -- -- 78
2020-07-27 08:00:00 16.5 2 Sur 9 Sur 0 -- -- 85
2020-07-27 07:00:00 15.8 3 Sur 6 Sur 0 -- -- 86
2020-07-27 06:00:00 16.4 3 Sur 10 Sur 0 -- -- 85
2020-07-27 05:00:00 17.2 2 Sur 7 Sur 0 -- -- 83
2020-07-27 04:00:00 18.1 2 Sur 10 Sudeste 0 -- -- 81
2020-07-27 03:00:00 18.9 4 Sur 8 Sudeste 0 -- -- 79
2020-07-27 02:00:00 19.9 4 Sur 9 Sur 0 -- -- 76
2020-07-27 01:00:00 21.3 5 Sur 9 Sur 0 -- -- 72
2020-07-27 00:00:00 23.1 5 Sur 10 Sudeste 0 -- -- 66
2020-07-26 23:00:00 25.4 5 Sur 10 Sudeste 0 -- -- 61
2020-07-26 22:00:00 28.5 3 Sudoeste 6 Nordeste 0 -- -- 51
2020-07-26 21:00:00 32.7 0 Calma 7 Noroeste 0 -- -- 37
2020-07-26 20:00:00 33.7 4 Noroeste 10 Oeste 0 -- -- 34
2020-07-26 19:00:00 33.7 4 Sudoeste 11 Oeste 0 -- -- 35
2020-07-26 18:00:00 33.6 4 Noroeste 17 Oeste 0 -- -- 35
2020-07-26 17:00:00 32.6 8 Nordeste 18 Nordeste 0 -- -- 35
2020-07-26 16:00:00 31.4 4 Nordeste 14 Oeste 0 -- -- 38
2020-07-26 15:00:00 29.9 5 Norte 13 Nordeste 0 -- -- 40
2020-07-26 14:00:00 28.8 6 Norte 15 Norte 0 -- -- 43
2020-07-26 13:00:00 27.2 6 Nordeste 13 Este 0 -- -- 43
2020-07-26 12:00:00 25.7 4 Norte 9 Nordeste 0 -- -- 51
2020-07-26 11:00:00 23.1 5 Oeste 15 Oeste 0 -- -- 58
2020-07-26 10:00:00 21.2 5 Oeste 10 Oeste 0 -- -- 63
2020-07-26 09:00:00 18.6 2 Sur 12 Sur 0 -- -- 71
2020-07-26 08:00:00 15.7 4 Sur 10 Sudeste 0 -- -- 81
2020-07-26 07:00:00 14.9 3 Sur 9 Sur 0 -- -- 81
2020-07-26 06:00:00 15.1 5 Sur 8 Sur 0 -- -- 81
2020-07-26 05:00:00 15.8 4 Sudoeste 10 Sur 0 -- -- 80
2020-07-26 04:00:00 17.2 4 Sur 12 Sur 0 -- -- 75
2020-07-26 03:00:00 17.7 5 Sur 12 Sur 0 -- -- 75
2020-07-26 02:00:00 18.6 6 Sur 12 Sur 0 -- -- 69
2020-07-26 01:00:00 19.5 6 Sudoeste 15 Sudoeste 0 -- -- 69
2020-07-26 00:00:00 20.5 6 Sudoeste 24 Oeste 0 -- -- 65
2020-07-25 23:00:00 21.7 12 Oeste 27 Oeste 0 -- -- 62
2020-07-25 22:00:00 23.6 8 Sudoeste 30 Noroeste 0 -- -- 60
2020-07-25 21:00:00 27.3 13 Noroeste 26 Noroeste 0 -- -- 51
2020-07-25 20:00:00 33.4 11 Nordeste 19 Este 0 -- -- 32
2020-07-25 19:00:00 34.1 6 Este 19 Este 0 -- -- 31
2020-07-25 18:00:00 34.2 6 Este 18 Este 0 -- -- 30
2020-07-25 17:00:00 33.5 5 Nordeste 17 Este 0 -- -- 30
2020-07-25 16:00:00 32 6 Nordeste 17 Nordeste 0 -- -- 30
2020-07-25 15:00:00 30.6 8 Norte 18 Norte 0 -- -- 33
2020-07-25 14:00:00 28.4 5 Nordeste 14 Norte 0 -- -- 40
2020-07-25 13:00:00 25.8 4 Noroeste 13 Este 0 -- -- 47
2020-07-25 12:00:00 23.6 4 Nordeste 11 Nordeste 0 -- -- 55
2020-07-25 11:00:00 21.4 5 Norte 11 Norte 0 -- -- 60
2020-07-25 10:00:00 18.7 4 Oeste 9 Oeste 0 -- -- 71
2020-07-25 09:00:00 16.4 4 Sur 10 Sur 0 -- -- 79
2020-07-25 08:00:00 13.4 5 Sur 10 Sur 0 -- -- 86
2020-07-25 07:00:00 12.4 3 Sur 8 Sur 0 -- -- 87
2020-07-25 06:00:00 13 4 Sur 8 Sur 0 -- -- 88
2020-07-25 05:00:00 13.8 4 Sur 9 Sudoeste 0 -- -- 86
2020-07-25 04:00:00 14.5 5 Sur 10 Sur 0 -- -- 85
2020-07-25 03:00:00 15.3 5 Sur 10 Sur 0 -- -- 83
2020-07-25 02:00:00 16.1 6 Sur 14 Sudoeste 0 -- -- 80
2020-07-25 01:00:00 17.3 8 Sudoeste 16 Sudoeste 0 -- -- 76
2020-07-25 00:00:00 18.1 5 Sudoeste 10 Oeste 0 -- -- 72
2020-07-24 23:00:00 19.5 3 Oeste 10 Oeste 0 -- -- 68
2020-07-24 22:00:00 20.9 4 Noroeste 15 Noroeste 0 -- -- 63
2020-07-24 21:00:00 23.6 5 Norte 22 Norte 0 -- -- 55
2020-07-24 20:00:00 26 6 Norte 26 Norte 0 -- -- 49
2020-07-24 19:00:00 27.2 11 Norte 22 Norte 0 -- -- 45
2020-07-24 18:00:00 28.4 8 Norte 27 Nordeste 0 -- -- 43
2020-07-24 17:00:00 28.7 7 Norte 26 Noroeste 0 -- -- 41
2020-07-24 16:00:00 28.2 11 Nordeste 21 Nordeste 0 -- -- 40
2020-07-24 15:00:00 27.3 5 Noroeste 18 Oeste 0 -- -- 43
2020-07-24 14:00:00 25.9 5 Noroeste 16 Oeste 0 -- -- 45
2020-07-24 13:00:00 24.8 5 Noroeste 14 Sudoeste 0 -- -- 50
2020-07-24 12:00:00 23 6 Noroeste 17 Noroeste 0 -- -- 56
2020-07-24 11:00:00 21.4 5 Oeste 15 Noroeste 0 -- -- 59
2020-07-24 10:00:00 19.7 5 Oeste 12 Oeste 0 -- -- 68
2020-07-24 09:00:00 18 4 Sur 12 Sur 0 -- -- 73
2020-07-24 08:00:00 15.4 5 Sur 10 Sudoeste 0 -- -- 79
2020-07-24 07:00:00 14.8 4 Sur 12 Sur 0 -- -- 77
2020-07-24 06:00:00 15.6 5 Sur 16 Sudoeste 0 -- -- 76
2020-07-24 05:00:00 16.8 6 Sudoeste 16 Sudoeste 0 -- -- 70
2020-07-24 04:00:00 17.3 4 Sudoeste 16 Oeste 0 -- -- 70
2020-07-24 03:00:00 17.7 7 Sudoeste 23 Oeste 0 -- -- 69
2020-07-24 02:00:00 18.2 12 Oeste 26 Oeste 0 -- -- 68
2020-07-24 01:00:00 19 13 Oeste 24 Oeste 0 -- -- 66
2020-07-24 00:00:00 20 14 Oeste 29 Oeste 0 -- -- 70
2020-07-23 23:00:00 21 13 Oeste 26 Sudoeste 0 -- -- 70
2020-07-23 22:00:00 22.9 11 Oeste 21 Oeste 0 -- -- 65
2020-07-23 21:00:00 25.7 11 Noroeste 24 Oeste 0 -- -- 59
2020-07-23 20:00:00 28.8 10 Noroeste 22 Noroeste 0 -- -- 51
2020-07-23 19:00:00 30.6 8 Noroeste 21 Oeste 0 -- -- 44
2020-07-23 18:00:00 31.8 8 Noroeste 18 Oeste 0 -- -- 42
2020-07-23 17:00:00 31.3 7 Noroeste 24 Oeste 0 -- -- 45
2020-07-23 16:00:00 30.6 8 Oeste 20 Oeste 0 -- -- 46
2020-07-23 15:00:00 28.9 6 Noroeste 22 Oeste 0 -- -- 51
2020-07-23 14:00:00 27.7 8 Noroeste 21 Oeste 0 -- -- 56
2020-07-23 13:00:00 25.9 5 Oeste 22 Oeste 0 -- -- 61
2020-07-23 12:00:00 23.7 8 Oeste 18 Oeste 0 -- -- 69
2020-07-23 11:00:00 21.9 6 Sudoeste 18 Oeste 0 -- -- 75
2020-07-23 10:00:00 20.8 7 Sudoeste 14 Oeste 0 -- -- 79
2020-07-23 09:00:00 20 5 Sudoeste 14 Sudoeste 0 -- -- 83
2020-07-23 08:00:00 19.7 8 Oeste 17 Noroeste 0 -- -- 84
2020-07-23 07:00:00 19.6 6 Oeste 19 Oeste 0 -- -- 84
2020-07-23 06:00:00 19.8 10 Oeste 19 Noroeste 0 -- -- 82
2020-07-23 05:00:00 19.9 5 Sudoeste 15 Sudoeste 0 -- -- 82
2020-07-23 04:00:00 20 8 Oeste 17 Oeste 0 -- -- 84
2020-07-23 03:00:00 20 6 Oeste 16 Oeste 0 -- -- 84
2020-07-23 02:00:00 20.1 7 Oeste 17 Sudoeste 0 -- -- 84
2020-07-23 01:00:00 20.4 7 Oeste 18 Sudoeste 0 -- -- 83
2020-07-23 00:00:00 21.2 7 Sudoeste 26 Oeste 0 -- -- 80
2020-07-22 23:00:00 22.5 9 Sudoeste 28 Oeste 0 -- -- 75
2020-07-22 22:00:00 26.3 13 Oeste 25 Oeste 0 -- -- 63
2020-07-22 21:00:00 30.3 3 Norte 13 Norte 0 -- -- 50
2020-07-22 20:00:00 31.8 9 Norte 18 Norte 0 -- -- 44
2020-07-22 19:00:00 33.6 4 Este 24 Nordeste 0 -- -- 37
2020-07-22 18:00:00 32.3 8 Nordeste 17 Nordeste 0 -- -- 34
2020-07-22 17:00:00 33.7 8 Norte 21 Este 0 -- -- 32
2020-07-22 16:00:00 32.5 12 Nordeste 30 Nordeste 0 -- -- 37
2020-07-22 15:00:00 31 12 Nordeste 25 Este 0 -- -- 42
2020-07-22 14:00:00 29.4 13 Nordeste 24 Este 0 -- -- 48
2020-07-22 13:00:00 28.1 12 Nordeste 26 Este 0 -- -- 52
2020-07-22 12:00:00 26.2 14 Nordeste 25 Este 0 -- -- 56
2020-07-22 11:00:00 23.6 5 Noroeste 11 Nordeste 0 -- -- 71
2020-07-22 10:00:00 21.6 3 Sudeste 15 Sudoeste 0 -- -- 78
2020-07-22 09:00:00 19.5 5 Sur 13 Sudoeste 0 -- -- 85
2020-07-22 08:00:00 17.9 4 Sur 13 Oeste 0 -- -- 89
2020-07-22 07:00:00 16.7 0 Calma 7 Sur 0 -- -- 90
2020-07-22 06:00:00 16.9 4 Sur 6 Sur 0 -- -- 90
2020-07-22 05:00:00 17.1 4 Sur 8 Sudeste 0 -- -- 89
2020-07-22 04:00:00 17.8 3 Sudeste 7 Sudoeste 0 -- -- 86
2020-07-22 03:00:00 18.5 3 Sur 10 Sudoeste 0 -- -- 83
2020-07-22 02:00:00 19 3 Sur 8 Sudeste 0 -- -- 83
2020-07-22 01:00:00 19.5 5 Sur 15 Sudoeste 0 -- -- 83
2020-07-22 00:00:00 19.7 7 Sur 14 Sudoeste 0 -- -- 83
2020-07-21 23:00:00 20.1 7 Sudoeste 12 Sudoeste 0.2 -- -- 83
2020-07-21 22:00:00 21.8 3 Oeste 15 Sudeste 0.4 -- -- 82
2020-07-21 21:00:00 23.4 4 Norte 19 Noroeste 0 -- -- 66
2020-07-21 20:00:00 23.1 5 Norte 27 Sudoeste 0 -- -- 65
2020-07-21 19:00:00 22.7 7 Sur 26 Sudoeste 0.4 -- -- 80
2020-07-21 18:00:00 23.7 12 Sur 29 Sur 0.8 -- -- 77
2020-07-21 17:00:00 29.3 5 Sudeste 23 Este 0 -- -- 54
2020-07-21 16:00:00 31 12 Nordeste 26 Nordeste 0 -- -- 47
2020-07-21 15:00:00 31.7 13 Nordeste 24 Este 0 -- -- 45
2020-07-21 14:00:00 29.6 10 Este 23 Este 0 -- -- 49
2020-07-21 13:00:00 27.3 6 Norte 17 Nordeste 0 -- -- 52
2020-07-21 12:00:00 25 6 Nordeste 14 Nordeste 0 -- -- 56
2020-07-21 11:00:00 22.3 4 Nordeste 13 Nordeste 0 -- -- 62
2020-07-21 10:00:00 20.2 3 Noroeste 7 Nordeste 0 -- -- 69
2020-07-21 09:00:00 18.2 3 Sudeste 8 Sudoeste 0 -- -- 77
2020-07-21 08:00:00 15.7 4 Sudoeste 7 Sur 0 -- -- 87
2020-07-21 07:00:00 15.2 4 Sur 7 Sur 0 -- -- 87
2020-07-21 06:00:00 15.9 4 Sur 7 Sur 0 -- -- 84
2020-07-21 05:00:00 16.7 3 Sur 8 Sudeste 0 -- -- 82
2020-07-21 04:00:00 17.7 4 Sudoeste 12 Oeste 0 -- -- 76
2020-07-21 03:00:00 18.3 4 Sudoeste 15 Sudoeste 0 -- -- 74
2020-07-21 02:00:00 18.9 4 Sudoeste 11 Sudoeste 0 -- -- 73
2020-07-21 01:00:00 19.4 7 Sudoeste 14 Sudoeste 0 -- -- 72
2020-07-21 00:00:00 20.4 8 Sudoeste 18 Sudoeste 0 -- -- 69
2020-07-20 23:00:00 21.5 7 Sudoeste 22 Sudoeste 0 -- -- 66
2020-07-20 22:00:00 23.3 9 Sudoeste 21 Oeste 0 -- -- 64
2020-07-20 21:00:00 26 11 Oeste 23 Oeste 0 -- -- 59
2020-07-20 20:00:00 29.1 12 Noroeste 29 Oeste 0 -- -- 52
2020-07-20 19:00:00 32.4 14 Noroeste 28 Oeste 0 -- -- 45
2020-07-20 18:00:00 34.3 5 Noroeste 17 Norte 0 -- -- 39
2020-07-20 17:00:00 33.7 7 Nordeste 19 Nordeste 0 -- -- 40
2020-07-20 16:00:00 32.6 8 Nordeste 21 Este 0 -- -- 42
2020-07-20 15:00:00 31.3 8 Este 15 Este 0 -- -- 45
2020-07-20 14:00:00 29.2 6 Noroeste 17 Oeste 0 -- -- 48
2020-07-20 13:00:00 27.2 6 Oeste 13 Nordeste 0 -- -- 52
2020-07-20 12:00:00 25.7 4 Oeste 12 Nordeste 0 -- -- 54
2020-07-20 11:00:00 23.8 4 Norte 9 Noroeste 0 -- -- 59
2020-07-20 10:00:00 21.3 5 Oeste 11 Noroeste 0 -- -- 67
2020-07-20 09:00:00 19.5 4 Sudoeste 10 Sur 0 -- -- 72
2020-07-20 08:00:00 17.5 4 Sur 9 Sudoeste 0 -- -- 81
2020-07-20 07:00:00 16.8 5 Sur 10 Sur 0 -- -- 82
2020-07-20 06:00:00 17.6 4 Sur 14 Sudoeste 0 -- -- 79
2020-07-20 05:00:00 18.7 8 Sudoeste 16 Sudoeste 0 -- -- 72
2020-07-20 04:00:00 19.4 7 Sudoeste 20 Sudoeste 0 -- -- 69
2020-07-20 03:00:00 19.8 8 Sudoeste 18 Sudoeste 0 -- -- 70
2020-07-20 02:00:00 20.8 9 Sudoeste 21 Sudoeste 0 -- -- 69
2020-07-20 01:00:00 21.9 11 Sudoeste 22 Sudoeste 0 -- -- 68
2020-07-20 00:00:00 23.3 4 Sudoeste 21 Oeste 0 -- -- 66
2020-07-19 23:00:00 25.2 8 Sur 21 Oeste 0 -- -- 61
2020-07-19 22:00:00 27.9 10 Oeste 20 Oeste 0 -- -- 54
2020-07-19 21:00:00 33 4 Este 21 Nordeste 0 -- -- 32
2020-07-19 20:00:00 34.8 6 Este 24 Este 0 -- -- 28
2020-07-19 19:00:00 35.4 9 Este 24 Este 0 -- -- 26
2020-07-19 18:00:00 35.7 12 Este 27 Este 0 -- -- 26
2020-07-19 17:00:00 35.4 11 Este 24 Nordeste 0 -- -- 27
2020-07-19 16:00:00 34.2 10 Nordeste 23 Norte 0 -- -- 30
2020-07-19 15:00:00 32.9 12 Nordeste 24 Norte 0 -- -- 32
2020-07-19 14:00:00 31.2 9 Este 19 Este 0 -- -- 39
2020-07-19 13:00:00 28.7 9 Nordeste 20 Nordeste 0 -- -- 46
2020-07-19 12:00:00 26.7 10 Este 21 Nordeste 0 -- -- 49
2020-07-19 11:00:00 24.8 12 Nordeste 21 Nordeste 0 -- -- 52
2020-07-19 10:00:00 20.9 3 Noroeste 6 Sudoeste 0 -- -- 68
2020-07-19 09:00:00 18.7 0 Calma 3 Este 0 -- -- 72
2020-07-19 08:00:00 15.7 0 Calma 4 Oeste 0 -- -- 81
2020-07-19 07:00:00 14.2 3 Sudeste 9 Sur 0 -- -- 85
2020-07-19 06:00:00 14.9 4 Sur 8 Sudeste 0 -- -- 84
2020-07-19 05:00:00 15.8 4 Sur 7 Sur 0 -- -- 82
2020-07-19 04:00:00 17 3 Sur 8 Sudoeste 0 -- -- 78
2020-07-19 03:00:00 18.2 0 Calma 12 Sur 0 -- -- 74
2020-07-19 02:00:00 19.1 6 Sudeste 9 Sur 0 -- -- 71
2020-07-19 01:00:00 20.4 4 Sur 12 Sur 0 -- -- 67
2020-07-19 00:00:00 22.3 7 Sur 12 Sur 0 -- -- 61
2020-07-18 23:00:00 24.4 6 Sur 12 Sur 0 -- -- 58
2020-07-18 22:00:00 27.8 2 Norte 9 Norte 0 -- -- 49
2020-07-18 21:00:00 31.5 2 Noroeste 12 Norte 0 -- -- 40
2020-07-18 20:00:00 33.3 4 Este 10 Nordeste 0 -- -- 29
2020-07-18 19:00:00 33.3 4 Norte 10 Este 0 -- -- 31
2020-07-18 18:00:00 33 5 Nordeste 13 Norte 0 -- -- 28
2020-07-18 17:00:00 32.1 4 Noroeste 14 Nordeste 0 -- -- 29
2020-07-18 16:00:00 30.6 6 Oeste 13 Oeste 0 -- -- 32
2020-07-18 15:00:00 28.8 4 Norte 14 Norte 0 -- -- 38
2020-07-18 14:00:00 27.1 5 Noroeste 14 Noroeste 0 -- -- 44
2020-07-18 13:00:00 25.1 5 Norte 13 Noroeste 0 -- -- 49
2020-07-18 12:00:00 23.2 3 Sudoeste 10 Este 0 -- -- 55
2020-07-18 11:00:00 21.5 3 Nordeste 10 Oeste 0 -- -- 63
2020-07-18 10:00:00 19.2 3 Oeste 11 Sudoeste 0 -- -- 68
2020-07-18 09:00:00 16.5 6 Sur 13 Sudoeste 0 -- -- 72
2020-07-18 08:00:00 13.7 7 Sur 14 Sudoeste 0 -- -- 80
2020-07-18 07:00:00 12.6 5 Sur 13 Sudoeste 0 -- -- 84
2020-07-18 06:00:00 12.7 5 Sur 13 Sur 0 -- -- 84
2020-07-18 05:00:00 12.9 7 Sur 13 Sur 0 -- -- 84
2020-07-18 04:00:00 13.3 5 Sur 11 Sur 0 -- -- 86
2020-07-18 03:00:00 13.8 6 Sur 12 Sur 0 -- -- 84
2020-07-18 02:00:00 14.6 6 Sur 12 Oeste 0 -- -- 80
2020-07-18 01:00:00 15.5 4 Sur 11 Sudeste 0 -- -- 76
2020-07-18 00:00:00 17 6 Oeste 17 Oeste 0 -- -- 71
2020-07-17 23:00:00 17.9 6 Oeste 17 Noroeste 0 -- -- 67
2020-07-17 22:00:00 19.4 9 Oeste 21 Noroeste 0 -- -- 62
2020-07-17 21:00:00 22.5 5 Noroeste 23 Oeste 0 -- -- 52
2020-07-17 20:00:00 24.1 7 Noroeste 22 Oeste 0 -- -- 46
2020-07-17 19:00:00 25 6 Noroeste 24 Oeste 0 -- -- 44
2020-07-17 18:00:00 25.4 11 Noroeste 23 Noroeste 0 -- -- 44
2020-07-17 17:00:00 26 5 Noroeste 22 Norte 0 -- -- 42
2020-07-17 16:00:00 25.7 8 Norte 23 Noroeste 0 -- -- 43
2020-07-17 15:00:00 24.5 7 Oeste 21 Oeste 0 -- -- 47
2020-07-17 14:00:00 23.3 6 Noroeste 20 Norte 0 -- -- 49
2020-07-17 13:00:00 21.5 6 Noroeste 22 Oeste 0 -- -- 53
2020-07-17 12:00:00 19.9 7 Noroeste 20 Oeste 0 -- -- 57
2020-07-17 11:00:00 17.9 8 Oeste 18 Oeste 0 -- -- 65
2020-07-17 10:00:00 16.6 8 Oeste 17 Sudoeste 0 -- -- 70
2020-07-17 09:00:00 15.8 5 Sudoeste 14 Sudoeste 0 -- -- 74
2020-07-17 08:00:00 15.3 6 Sudoeste 15 Sudoeste 0 -- -- 76
2020-07-17 07:00:00 15.1 6 Sudoeste 13 Sudoeste 0 -- -- 77
2020-07-17 06:00:00 15.1 7 Sudoeste 14 Sudoeste 0 -- -- 77
2020-07-17 05:00:00 15 8 Sudoeste 19 Oeste 0 -- -- 79
2020-07-17 04:00:00 14.9 8 Oeste 18 Oeste 0 -- -- 80
2020-07-17 03:00:00 14.4 6 Sudoeste 20 Oeste 0 -- -- 82
2020-07-17 02:00:00 15.1 6 Sudoeste 23 Sudoeste 0 -- -- 80
2020-07-17 01:00:00 15.7 9 Sudoeste 21 Sudoeste 0 -- -- 78
2020-07-17 00:00:00 16.6 7 Sudoeste 28 Oeste 0 -- -- 75
2020-07-16 23:00:00 17.7 14 Oeste 26 Oeste 0 -- -- 72
2020-07-16 22:00:00 19.3 11 Oeste 24 Oeste 0 -- -- 65
2020-07-16 21:00:00 22.7 9 Oeste 24 Noroeste 0 -- -- 53
2020-07-16 20:00:00 23.9 12 Noroeste 26 Noroeste 0 -- -- 47
2020-07-16 19:00:00 26 9 Oeste 22 Oeste 0 -- -- 41
2020-07-16 18:00:00 26.8 12 Noroeste 22 Norte 0 -- -- 38
2020-07-16 17:00:00 27.6 7 Norte 19 Norte 0 -- -- 40
2020-07-16 16:00:00 27.4 8 Norte 24 Nordeste 0 -- -- 38
2020-07-16 15:00:00 26.4 5 Oeste 16 Oeste 0 -- -- 44
2020-07-16 14:00:00 24.4 6 Noroeste 16 Sudoeste 0 -- -- 47
2020-07-16 13:00:00 22.9 6 Oeste 18 Noroeste 0 -- -- 50
2020-07-16 12:00:00 21.4 5 Noroeste 15 Oeste 0 -- -- 54
2020-07-16 11:00:00 19.4 7 Oeste 17 Noroeste 0 -- -- 59
2020-07-16 10:00:00 17.8 8 Oeste 16 Sudoeste 0 -- -- 65
2020-07-16 09:00:00 16.1 6 Sur 12 Sudoeste 0 -- -- 72
2020-07-16 08:00:00 13.9 3 Sudoeste 10 Sudoeste 0 -- -- 79
2020-07-16 07:00:00 12.4 5 Sudoeste 11 Sudoeste 0 -- -- 83
2020-07-16 06:00:00 12.2 6 Sur 12 Sur 0 -- -- 83
2020-07-16 05:00:00 12.5 5 Sur 12 Sudoeste 0 -- -- 81
2020-07-16 04:00:00 13.2 5 Sur 12 Sur 0 -- -- 80
2020-07-16 03:00:00 14 7 Sudoeste 16 Oeste 0 -- -- 78
2020-07-16 02:00:00 14.9 6 Sudoeste 18 Oeste 0 -- -- 75
2020-07-16 01:00:00 15.6 9 Oeste 16 Oeste 0 -- -- 73
2020-07-16 00:00:00 16.5 8 Sudoeste 22 Sudoeste 0 -- -- 68
2020-07-15 23:00:00 17.9 2 Sudeste 11 Noroeste 0 -- -- 59
2020-07-15 22:00:00 19.5 3 Norte 13 Oeste 0 -- -- 55
2020-07-15 21:00:00 22.3 5 Norte 18 Norte 0 -- -- 47
2020-07-15 20:00:00 23.3 12 Norte 27 Norte 0 -- -- 44
2020-07-15 19:00:00 24.5 12 Norte 24 Norte 0 -- -- 43
2020-07-15 18:00:00 24.8 9 Norte 19 Nordeste 0 -- -- 44
2020-07-15 17:00:00 24.3 8 Norte 21 Nordeste 0 -- -- 46
2020-07-15 16:00:00 24.2 7 Norte 23 Nordeste 0 -- -- 46
2020-07-15 15:00:00 22.7 5 Noroeste 27 Noroeste 0 -- -- 50
2020-07-15 14:00:00 22.7 9 Noroeste 25 Oeste 0 -- -- 50
2020-07-15 13:00:00 20.2 10 Noroeste 25 Noroeste 0 -- -- 59
2020-07-15 12:00:00 19.7 8 Noroeste 20 Oeste 0 -- -- 62
2020-07-15 11:00:00 19.3 6 Noroeste 17 Oeste 0 -- -- 62
2020-07-15 10:00:00 18.4 4 Sudoeste 9 Oeste 0 -- -- 58
2020-07-15 09:00:00 15.6 4 Sudoeste 13 Sudoeste 0 -- -- 57
2020-07-15 08:00:00 12.9 6 Sur 19 Sudoeste 0 -- -- 59
2020-07-15 07:00:00 10.4 7 Sur 16 Sudoeste 0 -- -- 63
2020-07-15 06:00:00 10.2 5 Sur 13 Sudoeste 0 -- -- 68
2020-07-15 05:00:00 10.7 4 Sur 15 Sudoeste 0 -- -- 68
2020-07-15 04:00:00 11.3 6 Sur 13 Sudoeste 0 -- -- 66
2020-07-15 03:00:00 12.1 5 Sur 15 Sudoeste 0 -- -- 69
2020-07-15 02:00:00 13.2 5 Sur 20 Sudoeste 0 -- -- 71
2020-07-15 01:00:00 14.2 6 Sudoeste 19 Oeste 0 -- -- 66
2020-07-15 00:00:00 15.5 8 Oeste 23 Oeste 0 -- -- 56
2020-07-14 23:00:00 16.5 7 Oeste 21 Oeste 0 -- -- 48
2020-07-14 22:00:00 18.3 8 Noroeste 24 Noroeste 0 -- -- 41
2020-07-14 21:00:00 21.3 7 Noroeste 23 Oeste 0 -- -- 36
2020-07-14 20:00:00 23.6 8 Norte 22 Noroeste 0 -- -- 30
2020-07-14 19:00:00 24.9 6 Norte 22 Noroeste 0 -- -- 38
2020-07-14 18:00:00 26.2 7 Norte 24 Noroeste 0 -- -- 37
2020-07-14 17:00:00 26.4 8 Norte 22 Nordeste 0 -- -- 36
2020-07-14 16:00:00 26.2 6 Norte 26 Nordeste 0 -- -- 33
2020-07-14 15:00:00 25.6 7 Norte 22 Norte 0 -- -- 36
2020-07-14 14:00:00 24.3 6 Nordeste 15 Nordeste 0 -- -- 36
2020-07-14 13:00:00 22 7 Sudoeste 19 Oeste 0 -- -- 41
2020-07-14 12:00:00 21.2 8 Oeste 19 Oeste 0 -- -- 43
2020-07-14 11:00:00 20 5 Oeste 19 Noroeste 0 -- -- 47
2020-07-14 10:00:00 18.1 9 Noroeste 22 Oeste 0 -- -- 54
2020-07-14 09:00:00 16.2 5 Sur 12 Sudoeste 0 -- -- 59
2020-07-14 08:00:00 13.4 4 Sur 14 Sudeste 0 -- -- 65
2020-07-14 07:00:00 12.1 5 Sur 13 Sudoeste 0 -- -- 66
2020-07-14 06:00:00 11.5 5 Sur 13 Sudoeste 0 -- -- 74
2020-07-14 05:00:00 11.7 6 Sur 10 Sur 0 -- -- 74
2020-07-14 04:00:00 12.2 6 Sur 11 Sudeste 0 -- -- 75
2020-07-14 03:00:00 13 5 Sur 10 Sur 0 -- -- 71
2020-07-14 02:00:00 14.1 5 Sur 10 Sur 0 -- -- 67
2020-07-14 01:00:00 15.7 4 Sur 16 Sudoeste 0 -- -- 63
2020-07-14 00:00:00 17.5 10 Oeste 20 Oeste 0 -- -- 56
2020-07-13 23:00:00 18.5 7 Oeste 23 Oeste 0 -- -- 53
2020-07-13 22:00:00 20.4 9 Noroeste 24 Noroeste 0 -- -- 48
2020-07-13 21:00:00 23.4 7 Noroeste 26 Noroeste 0 -- -- 44
2020-07-13 20:00:00 24.9 7 Norte 30 Norte 0 -- -- 43
2020-07-13 19:00:00 26.4 9 Norte 28 Norte 0 -- -- 42
2020-07-13 18:00:00 27.4 7 Noroeste 23 Norte 0 -- -- 42
2020-07-13 17:00:00 27.8 8 Noroeste 27 Norte 0 -- -- 41
2020-07-13 16:00:00 27.9 9 Norte 24 Norte 0 -- -- 41
2020-07-13 15:00:00 27.5 5 Noroeste 18 Norte 0 -- -- 40
2020-07-13 14:00:00 26.4 6 Noroeste 23 Oeste 0 -- -- 40
2020-07-13 13:00:00 25.3 7 Noroeste 22 Oeste 0 -- -- 44
2020-07-13 12:00:00 23.9 4 Norte 15 Oeste 0 -- -- 47
2020-07-13 11:00:00 22.3 5 Oeste 13 Oeste 0 -- -- 50
2020-07-13 10:00:00 20.3 6 Oeste 13 Oeste 0 -- -- 55
2020-07-13 09:00:00 18.7 3 Sudoeste 8 Oeste 0 -- -- 70
2020-07-13 08:00:00 16.5 4 Sur 8 Sudeste 0 -- -- 80
2020-07-13 07:00:00 15.7 0 Calma 9 Sur 0 -- -- 74
2020-07-13 06:00:00 16.5 5 Sudoeste 17 Oeste 0 -- -- 72
2020-07-13 05:00:00 16.9 7 Sudoeste 22 Oeste 0 -- -- 72
2020-07-13 04:00:00 17.4 12 Oeste 22 Oeste 0 -- -- 73
2020-07-13 03:00:00 17.9 11 Oeste 23 Oeste 0 -- -- 80
2020-07-13 02:00:00 18 8 Sudoeste 22 Sudoeste 0 -- -- 83
2020-07-13 01:00:00 18.4 8 Sudoeste 19 Sudoeste 0 -- -- 82
2020-07-13 00:00:00 19 9 Sudoeste 25 Oeste 0 -- -- 79